Time;durP1;ratioP1;P1;durP2;ratioP2;P2;SDS_P1;SDS_P2;PMS_P1;PMS_P2;Temp;Humidity;BMP_temperature;BMP_pressure;BME280_temperature;BME280_humidity;BME280_pressure;Samples;Min_cycle;Max_cycle;Signal;HPM_P1;HPM_P2
2022/10/09 00:01:28;;;;;;;27.35;19.35;;;17.60;99.90;;;;;;5049408;28;20046;-74
2022/10/09 00:03:55;;;;;;;27.48;18.83;;;17.60;99.90;;;;;;5038558;28;20154;-74
2022/10/09 00:06:26;;;;;;;30.13;17.98;;;17.50;99.90;;;;;;5053259;28;20021;-74
2022/10/09 00:08:52;;;;;;;27.35;19.40;;;17.60;99.90;;;;;;5053960;28;20072;-74
2022/10/09 00:11:25;;;;;;;31.17;18.25;;;17.50;99.90;;;;;;5053641;28;20040;-74
2022/10/09 00:13:51;;;;;;;27.95;18.10;;;17.50;99.90;;;;;;5052485;28;20364;-74
2022/10/09 00:16:19;;;;;;;26.25;18.25;;;17.50;99.90;;;;;;5053873;28;20021;-74
2022/10/09 00:18:45;;;;;;;28.27;18.75;;;17.50;99.90;;;;;;5053557;28;20048;-74
2022/10/09 00:21:23;;;;;;;29.00;17.75;;;17.50;99.90;;;;;;5053599;28;20104;-74
2022/10/09 00:23:50;;;;;;;28.67;18.33;;;17.40;99.90;;;;;;5053663;28;20025;-74
2022/10/09 00:26:17;;;;;;;32.17;18.55;;;17.40;99.90;;;;;;5053462;28;20029;-74
2022/10/09 00:28:43;;;;;;;26.48;18.38;;;17.40;99.90;;;;;;5053389;28;20478;-74
2022/10/09 00:31:10;;;;;;;28.98;17.45;;;17.40;99.90;;;;;;5052590;28;20033;-74
2022/10/09 00:33:39;;;;;;;30.67;19.95;;;17.40;99.90;;;;;;5052154;28;20048;-74
2022/10/09 00:36:08;;;;;;;31.27;18.48;;;17.40;99.90;;;;;;5053443;28;20047;-74
2022/10/09 00:38:34;;;;;;;32.30;19.13;;;17.40;99.90;;;;;;5053377;28;20532;-74
2022/10/09 00:41:03;;;;;;;27.75;19.15;;;17.40;99.90;;;;;;5052633;28;20021;-74
2022/10/09 00:43:41;;;;;;;26.80;17.85;;;17.40;99.90;;;;;;5051964;28;20025;-74
2022/10/09 00:46:23;;;;;;;32.28;18.92;;;17.40;99.90;;;;;;5053063;28;20426;-74
2022/10/09 00:49:02;;;;;;;29.38;18.48;;;17.40;99.90;;;;;;5053324;28;20045;-74
2022/10/09 00:51:30;;;;;;;28.85;19.70;;;17.40;99.90;;;;;;5052913;28;20013;-74
2022/10/09 00:53:56;;;;;;;28.00;17.98;;;17.40;99.90;;;;;;5053132;28;20029;-74
2022/10/09 00:56:23;;;;;;;29.15;18.52;;;17.30;99.90;;;;;;5052848;28;20010;-74
2022/10/09 00:58:53;;;;;;;28.90;18.67;;;17.30;99.90;;;;;;5052829;28;20025;-74
2022/10/09 01:01:19;;;;;;;24.05;17.70;;;17.40;99.90;;;;;;5050980;28;20013;-74
2022/10/09 01:03:45;;;;;;;27.08;18.83;;;17.40;99.90;;;;;;5051660;28;20589;-74
2022/10/09 01:06:36;;;;;;;28.35;19.35;;;17.30;99.90;;;;;;5052741;28;20048;-74
2022/10/09 01:09:10;;;;;;;32.53;19.40;;;17.40;99.90;;;;;;5052082;28;20025;-74
2022/10/09 01:11:52;;;;;;;27.85;18.83;;;17.40;99.90;;;;;;5051169;28;20071;-74
2022/10/09 01:14:18;;;;;;;;;;;17.30;99.90;;;;;;5051812;28;20029;-74
2022/10/09 01:17:09;;;;;;;29.08;18.00;;;17.40;99.90;;;;;;5052713;28;19904;-74
2022/10/09 01:19:38;;;;;;;30.58;18.95;;;17.40;99.90;;;;;;5051943;28;20140;-74
2022/10/09 01:22:18;;;;;;;27.25;19.05;;;17.30;99.90;;;;;;5052389;28;20050;-74
2022/10/09 01:24:52;;;;;;;27.60;18.38;;;17.40;99.90;;;;;;5052454;28;20029;-74
2022/10/09 01:27:23;;;;;;;29.10;19.58;;;17.40;99.90;;;;;;5051030;28;20059;-74
2022/10/09 01:29:54;;;;;;;25.60;18.20;;;17.40;99.90;;;;;;5032651;28;20044;-74
2022/10/09 01:32:24;;;;;;;29.73;18.33;;;17.30;99.90;;;;;;5032218;28;20481;-74
2022/10/09 01:34:51;;;;;;;25.58;17.92;;;17.30;99.90;;;;;;5031044;28;20081;-74
2022/10/09 01:37:19;;;;;;;28.40;18.27;;;17.30;99.90;;;;;;5032416;28;20104;-74
2022/10/09 01:39:45;;;;;;;29.13;18.27;;;17.30;99.90;;;;;;5064168;28;20026;-74
2022/10/09 01:42:13;;;;;;;27.95;18.77;;;17.30;99.90;;;;;;5032155;28;20399;-74
2022/10/09 01:44:39;;;;;;;29.20;18.25;;;17.30;99.90;;;;;;5032062;28;20029;-74
2022/10/09 01:47:06;;;;;;;35.55;19.52;;;17.30;99.90;;;;;;5030846;28;20496;-74
2022/10/09 01:49:52;;;;;;;29.23;18.63;;;17.30;99.90;;;;;;5032041;28;20104;-74
2022/10/09 01:52:27;;;;;;;27.52;18.25;;;17.40;99.90;;;;;;5031702;28;20438;-74
2022/10/09 01:54:56;;;;;;;27.25;18.70;;;17.30;99.90;;;;;;5031746;28;20430;-74
2022/10/09 01:57:44;;;;;;;27.83;18.05;;;17.40;99.90;;;;;;5031385;28;20025;-74
2022/10/09 02:00:11;;;;;;;28.08;18.73;;;17.30;99.90;;;;;;5031946;28;20075;-74
2022/10/09 02:02:38;;;;;;;25.98;18.13;;;17.40;99.90;;;;;;5030412;28;20028;-74
2022/10/09 02:05:06;;;;;;;29.08;19.00;;;17.30;99.90;;;;;;5031565;28;20281;-74
2022/10/09 02:07:33;;;;;;;26.30;17.58;;;17.40;99.90;;;;;;5031880;28;20429;-74
2022/10/09 02:10:04;;;;;;;27.48;17.70;;;17.40;99.90;;;;;;5031379;28;20061;-74
2022/10/09 02:12:36;;;;;;;27.73;17.67;;;17.40;99.90;;;;;;5031457;28;20017;-74
2022/10/09 02:15:01;;;;;;;25.10;18.08;;;17.40;99.90;;;;;;5031551;28;20033;-74
2022/10/09 02:17:33;;;;;;;23.08;16.75;;;17.40;99.90;;;;;;5031345;28;20029;-74
2022/10/09 02:20:07;;;;;;;416.60;288.40;;;17.40;99.90;;;;;;5031548;28;20021;-74
2022/10/09 02:22:34;;;;;;;107.50;71.95;;;17.50;99.90;;;;;;5029457;28;20219;-74
2022/10/09 02:25:03;;;;;;;114.50;70.03;;;17.50;99.90;;;;;;5031633;28;20479;-74
2022/10/09 02:27:30;;;;;;;50.10;29.88;;;17.50;99.90;;;;;;5034180;28;20032;-74
2022/10/09 02:29:59;;;;;;;29.83;21.45;;;17.50;99.90;;;;;;5051585;28;20495;-74
2022/10/09 02:32:24;;;;;;;32.92;20.00;;;17.50;99.90;;;;;;5053611;28;20037;-74
2022/10/09 02:34:51;;;;;;;26.38;18.67;;;17.50;99.90;;;;;;5048247;28;20110;-74
2022/10/09 02:37:17;;;;;;;28.25;19.10;;;17.50;99.90;;;;;;5048910;28;20029;-74
2022/10/09 02:39:43;;;;;;;25.85;17.98;;;17.50;99.90;;;;;;5049690;28;20067;-74
2022/10/09 02:42:09;;;;;;;28.92;18.10;;;17.50;99.90;;;;;;5050694;28;20098;-74
2022/10/09 02:44:34;;;;;;;22.92;18.05;;;17.50;99.90;;;;;;5052227;28;20013;-74
2022/10/09 02:47:00;;;;;;;27.02;18.20;;;17.50;99.90;;;;;;5050640;28;20125;-74
2022/10/09 02:49:26;;;;;;;31.27;18.20;;;17.50;99.90;;;;;;5049784;28;20059;-74
2022/10/09 02:51:51;;;;;;;26.27;17.65;;;17.50;99.90;;;;;;5051212;28;20025;-75
2022/10/09 02:54:17;;;;;;;29.48;18.80;;;17.50;99.90;;;;;;5050680;28;20104;-74
2022/10/09 02:56:43;;;;;;;27.55;18.27;;;17.50;99.90;;;;;;5051219;28;20479;-74
2022/10/09 02:59:09;;;;;;;28.67;18.67;;;17.50;99.90;;;;;;5051405;28;20022;-74
2022/10/09 03:01:35;;;;;;;23.58;17.23;;;17.50;99.90;;;;;;5051040;28;20642;-74
2022/10/09 03:04:01;;;;;;;24.92;17.67;;;17.60;99.90;;;;;;5031742;28;20522;-74
2022/10/09 03:06:28;;;;;;;24.02;17.73;;;17.50;99.90;;;;;;5030189;28;20132;-74
2022/10/09 03:08:55;;;;;;;26.40;18.20;;;17.50;99.90;;;;;;5030482;28;20032;-74
2022/10/09 03:11:23;;;;;;;30.25;19.10;;;17.50;99.90;;;;;;5029799;28;20391;-74
2022/10/09 03:13:49;;;;;;;24.90;18.08;;;17.50;99.90;;;;;;5031295;28;20499;-74
2022/10/09 03:16:22;;;;;;;25.90;18.13;;;17.60;99.90;;;;;;5063057;28;20407;-74
2022/10/09 03:18:49;;;;;;;27.33;17.83;;;17.50;99.90;;;;;;5063140;28;20494;-74
2022/10/09 03:21:18;;;;;;;25.27;17.48;;;17.50;99.90;;;;;;5031035;28;20030;-74
2022/10/09 03:23:44;;;;;;;29.10;17.10;;;17.50;99.90;;;;;;5063130;28;20486;-74
2022/10/09 03:26:11;;;;;;;30.35;17.90;;;17.50;99.90;;;;;;5031151;28;20502;-74
2022/10/09 03:28:48;;;;;;;27.02;17.15;;;17.50;99.90;;;;;;5030849;28;20029;-74
2022/10/09 03:31:15;;;;;;;23.65;17.65;;;17.40;99.90;;;;;;5030814;28;20030;-74
2022/10/09 03:33:41;;;;;;;27.38;17.40;;;17.50;99.90;;;;;;5033761;28;20022;-74
2022/10/09 03:36:07;;;;;;;27.33;17.45;;;17.40;99.90;;;;;;5032179;28;20029;-74
2022/10/09 03:38:33;;;;;;;25.35;17.80;;;17.50;99.90;;;;;;5064654;28;20438;-74
2022/10/09 03:40:59;;;;;;;25.45;15.88;;;17.40;99.90;;;;;;5031234;28;20033;-74
2022/10/09 03:43:25;;;;;;;25.98;17.48;;;17.40;99.90;;;;;;5032524;28;20083;-74
2022/10/09 03:45:51;;;;;;;28.95;17.58;;;17.40;99.90;;;;;;5032546;28;20391;-74
2022/10/09 03:48:17;;;;;;;28.27;17.90;;;17.40;99.90;;;;;;5032381;28;20436;-74
2022/10/09 03:50:42;;;;;;;27.27;17.70;;;17.40;99.90;;;;;;5032312;28;20029;-74
2022/10/09 03:53:10;;;;;;;25.27;16.95;;;17.40;99.90;;;;;;5064815;28;20045;-74
2022/10/09 03:55:35;;;;;;;25.30;18.40;;;17.50;99.90;;;;;;5032683;28;20033;-74
2022/10/09 03:58:01;;;;;;;25.42;16.75;;;17.50;99.90;;;;;;5064603;28;20021;-74
2022/10/09 04:00:27;;;;;;;22.63;16.60;;;17.50;99.90;;;;;;5033497;28;20021;-74
2022/10/09 04:02:53;;;;;;;23.00;17.02;;;17.50;99.90;;;;;;5066521;28;20116;-74
2022/10/09 04:05:19;;;;;;;23.55;16.48;;;17.50;99.90;;;;;;5066033;28;20025;-74
2022/10/09 04:07:45;;;;;;;23.38;17.23;;;17.50;99.90;;;;;;5032885;28;20034;-74
2022/10/09 04:10:11;;;;;;;27.73;16.45;;;17.50;99.90;;;;;;5033875;28;20088;-74
2022/10/09 04:12:36;;;;;;;26.60;17.27;;;17.40;99.90;;;;;;5033834;28;20610;-74
2022/10/09 04:15:03;;;;;;;26.95;16.33;;;17.40;99.90;;;;;;5033964;28;20021;-74
2022/10/09 04:17:28;;;;;;;22.48;16.67;;;17.40;99.90;;;;;;5033830;28;20018;-74
2022/10/09 04:19:54;;;;;;;23.95;17.45;;;17.50;99.90;;;;;;5032535;28;20025;-74
2022/10/09 04:22:23;;;;;;;23.23;16.20;;;17.50;99.90;;;;;;5033758;28;20033;-74
2022/10/09 04:24:49;;;;;;;29.55;17.17;;;17.50;99.90;;;;;;5033786;28;20025;-74
2022/10/09 04:27:15;;;;;;;26.40;16.17;;;17.40;99.90;;;;;;5032251;28;20040;-74
2022/10/09 04:29:40;;;;;;;25.27;16.40;;;17.50;99.90;;;;;;5032365;28;20560;-74
2022/10/09 04:32:06;;;;;;;28.63;17.38;;;17.40;99.90;;;;;;5065486;28;20041;-74
2022/10/09 04:34:32;;;;;;;29.65;16.70;;;17.40;99.90;;;;;;5033467;28;20199;-74
2022/10/09 04:37:00;;;;;;;23.42;17.52;;;17.50;99.90;;;;;;5032335;28;20490;-74
2022/10/09 04:39:26;;;;;;;27.73;17.77;;;17.50;99.90;;;;;;5033547;28;20064;-74
2022/10/09 04:41:52;;;;;;;25.20;16.45;;;17.50;99.90;;;;;;5065345;28;20041;-74
2022/10/09 04:44:17;;;;;;;24.80;17.45;;;17.50;99.90;;;;;;5033948;28;20025;-74
2022/10/09 04:46:43;;;;;;;26.42;17.15;;;17.50;99.90;;;;;;5050969;28;20484;-74
2022/10/09 04:49:13;;;;;;;23.60;17.25;;;17.40;99.90;;;;;;5053089;28;20104;-74
2022/10/09 04:51:39;;;;;;;26.08;17.35;;;17.50;99.90;;;;;;5052953;28;20036;-74
2022/10/09 04:54:05;;;;;;;28.13;15.85;;;17.50;99.90;;;;;;5051948;28;20022;-74
2022/10/09 04:56:30;;;;;;;24.17;16.45;;;17.50;99.90;;;;;;5053212;28;20383;-74
2022/10/09 04:58:56;;;;;;;24.45;16.33;;;17.40;99.90;;;;;;5051552;28;20053;-74
2022/10/09 05:01:26;;;;;;;21.73;15.55;;;17.40;99.90;;;;;;5052751;28;20540;-74
2022/10/09 05:03:52;;;;;;;21.15;15.18;;;17.40;99.90;;;;;;5052479;28;20026;-74
2022/10/09 05:06:20;;;;;;;22.85;15.32;;;17.50;99.90;;;;;;5052880;28;20112;-74
2022/10/09 05:08:46;;;;;;;20.27;15.25;;;17.50;99.90;;;;;;5052689;28;20033;-74
2022/10/09 05:11:17;;;;;;;23.63;15.82;;;17.50;99.90;;;;;;5052732;28;20032;-74
2022/10/09 05:13:45;;;;;;;25.30;17.00;;;17.40;99.90;;;;;;5052934;28;20067;-74
2022/10/09 05:16:14;;;;;;;24.33;14.63;;;17.50;99.90;;;;;;5051539;28;20032;-75
2022/10/09 05:18:42;;;;;;;20.48;15.25;;;17.50;99.90;;;;;;5052668;28;20025;-74
2022/10/09 05:21:09;;;;;;;20.23;15.20;;;17.40;99.90;;;;;;5052421;28;20108;-74
2022/10/09 05:23:34;;;;;;;26.88;16.95;;;17.40;99.90;;;;;;5051310;28;20029;-74
2022/10/09 05:26:05;;;;;;;24.65;16.50;;;17.40;99.90;;;;;;5052721;28;20025;-74
2022/10/09 05:28:32;;;;;;;22.42;16.20;;;17.40;99.90;;;;;;5052472;28;20056;-74
2022/10/09 05:30:58;;;;;;;24.00;17.35;;;17.40;99.90;;;;;;5050951;28;20120;-74
2022/10/09 05:33:23;;;;;;;27.92;17.77;;;17.40;99.90;;;;;;5052288;28;20124;-74
2022/10/09 05:35:54;;;;;;;27.33;17.58;;;17.40;99.90;;;;;;5052530;28;20025;-75
2022/10/09 05:38:21;;;;;;;24.45;17.13;;;17.40;99.90;;;;;;5052270;28;20023;-75
2022/10/09 05:40:53;;;;;;;25.27;15.93;;;17.40;99.90;;;;;;5052035;28;20116;-75
2022/10/09 05:43:21;;;;;;;24.98;16.02;;;17.40;99.90;;;;;;5051608;28;20090;-74
2022/10/09 05:45:50;;;;;;;23.50;17.00;;;17.30;99.90;;;;;;5052901;28;20024;-75
2022/10/09 05:48:15;;;;;;;25.33;16.77;;;17.30;99.90;;;;;;5051459;28;20053;-74
2022/10/09 05:50:41;;;;;;;28.10;16.75;;;17.30;99.90;;;;;;5052931;28;20510;-74
2022/10/09 05:53:07;;;;;;;25.83;15.75;;;17.30;99.90;;;;;;5053015;28;20108;-74
2022/10/09 05:55:33;;;;;;;22.98;16.48;;;17.40;99.90;;;;;;5051702;28;20033;-74
2022/10/09 05:57:58;;;;;;;28.75;16.83;;;17.40;99.90;;;;;;5052966;28;20025;-74
2022/10/09 06:00:24;;;;;;;23.88;16.58;;;17.40;99.90;;;;;;5052550;28;20021;-74
2022/10/09 06:02:50;;;;;;;28.35;18.58;;;17.40;99.90;;;;;;5050933;28;20044;-74
2022/10/09 06:05:15;;;;;;;29.15;18.50;;;17.40;99.90;;;;;;5052361;28;20021;-74
2022/10/09 06:07:41;;;;;;;25.15;16.95;;;17.50;99.90;;;;;;5052013;28;20025;-75
2022/10/09 06:10:07;;;;;;;30.40;19.63;;;17.40;99.90;;;;;;5050878;28;20025;-74
2022/10/09 06:12:33;;;;;;;26.25;18.25;;;17.50;99.90;;;;;;5051873;28;20355;-74
2022/10/09 06:14:59;;;;;;;25.27;18.17;;;17.50;99.90;;;;;;5050749;28;20167;-74
2022/10/09 06:17:24;;;;;;;30.50;17.30;;;17.50;99.90;;;;;;5051999;28;20040;-74
2022/10/09 06:19:50;;;;;;;27.55;18.60;;;17.50;99.90;;;;;;5051797;28;20033;-75
2022/10/09 06:22:16;;;;;;;28.60;17.95;;;17.50;99.90;;;;;;5051829;28;20453;-74
2022/10/09 06:24:41;;;;;;;33.08;19.45;;;17.60;99.90;;;;;;5051811;28;20040;-74
2022/10/09 06:27:07;;;;;;;28.48;17.98;;;17.50;99.90;;;;;;5051659;28;20027;-74
2022/10/09 06:29:33;;;;;;;27.63;17.13;;;17.50;99.90;;;;;;5050285;28;20076;-75
2022/10/09 06:31:58;;;;;;;24.45;17.38;;;17.60;99.90;;;;;;5051324;28;20025;-75
2022/10/09 06:34:24;;;;;;;26.58;17.13;;;17.60;99.90;;;;;;5051584;28;20057;-74
2022/10/09 06:36:50;;;;;;;24.48;17.80;;;17.60;99.90;;;;;;5050581;28;20447;-74
2022/10/09 06:39:16;;;;;;;23.80;16.65;;;17.70;99.90;;;;;;5051704;28;20086;-74
2022/10/09 06:41:41;;;;;;;26.00;17.08;;;17.70;99.90;;;;;;5051294;28;20021;-74
2022/10/09 06:44:11;;;;;;;27.58;17.67;;;17.80;99.90;;;;;;5051165;28;20025;-75
2022/10/09 06:46:39;;;;;;;23.85;17.83;;;17.80;99.90;;;;;;5050024;28;20024;-75
2022/10/09 06:49:06;;;;;;;27.15;17.85;;;17.80;99.90;;;;;;5051352;28;20056;-74
2022/10/09 06:51:33;;;;;;;26.50;17.05;;;17.80;99.90;;;;;;5051110;28;20029;-74
2022/10/09 06:54:00;;;;;;;23.77;15.35;;;17.90;99.90;;;;;;5051528;28;20390;-75
2022/10/09 06:56:28;;;;;;;25.95;16.80;;;17.90;99.90;;;;;;5050996;28;20045;-74
2022/10/09 06:58:54;;;;;;;28.00;16.73;;;17.90;99.90;;;;;;5051134;28;20032;-74
2022/10/09 07:01:25;;;;;;;26.45;15.57;;;17.90;99.90;;;;;;5051245;28;20025;-74
2022/10/09 07:03:56;;;;;;;21.85;16.05;;;18.00;99.90;;;;;;5051280;28;20067;-74
2022/10/09 07:06:24;;;;;;;23.10;15.80;;;18.00;99.90;;;;;;5051393;28;20017;-74
2022/10/09 07:09:01;;;;;;;21.27;15.27;;;18.00;99.90;;;;;;5054498;28;20029;-74
2022/10/09 07:11:31;;;;;;;23.88;16.33;;;18.10;99.90;;;;;;5054905;28;20033;-75
2022/10/09 07:13:59;;;;;;;32.17;17.52;;;18.10;99.90;;;;;;5055186;28;20494;-74
2022/10/09 07:16:28;;;;;;;26.08;16.85;;;18.20;99.90;;;;;;5055105;28;20021;-74
2022/10/09 07:18:54;;;;;;;24.83;16.23;;;18.20;99.90;;;;;;5055111;28;20030;-75
2022/10/09 07:21:21;;;;;;;20.63;15.93;;;18.20;99.90;;;;;;5054847;28;20029;-74
2022/10/09 07:23:47;;;;;;;20.92;16.35;;;18.30;99.90;;;;;;5054876;28;20360;-75
2022/10/09 07:26:14;;;;;;;21.50;15.90;;;18.30;99.90;;;;;;5054820;28;20124;-75
2022/10/09 07:28:41;;;;;;;24.85;16.35;;;18.30;99.90;;;;;;5054676;28;20096;-74
2022/10/09 07:31:08;;;;;;;21.55;16.20;;;18.40;99.90;;;;;;5054517;28;20029;-75
2022/10/09 07:33:33;;;;;;;22.20;15.77;;;18.40;99.90;;;;;;5054667;28;20060;-75
2022/10/09 07:36:00;;;;;;;21.00;13.55;;;18.40;99.90;;;;;;5054782;28;20049;-75
2022/10/09 07:38:27;;;;;;;22.02;13.38;;;18.50;99.90;;;;;;5053279;28;20029;-75
2022/10/09 07:40:53;;;;;;;10.65;7.32;;;18.60;99.90;;;;;;5053276;28;20025;-75
2022/10/09 07:43:20;;;;;;;10.77;6.47;;;18.70;99.90;;;;;;5054733;28;20040;-74
2022/10/09 07:45:46;;;;;;;9.65;4.20;;;18.80;99.90;;;;;;5053156;28;20025;-75
2022/10/09 07:48:12;;;;;;;5.72;5.22;;;18.90;99.90;;;;;;5054296;28;20502;-74
2022/10/09 07:50:39;;;;;;;8.82;4.45;;;19.00;99.90;;;;;;5054368;28;20025;-74
2022/10/09 07:53:04;;;;;;;3.70;3.35;;;19.10;99.90;;;;;;5054264;28;20040;-74
2022/10/09 07:55:30;;;;;;;4.18;3.42;;;19.20;99.90;;;;;;5054258;28;20017;-74
2022/10/09 07:57:56;;;;;;;6.78;3.45;;;19.20;99.90;;;;;;5054202;28;20032;-75
2022/10/09 08:00:21;;;;;;;4.80;3.30;;;19.40;99.90;;;;;;5052860;28;20079;-75
2022/10/09 08:02:47;;;;;;;6.35;3.70;;;19.40;99.90;;;;;;5054213;28;20107;-74
2022/10/09 08:05:13;;;;;;;6.22;3.83;;;19.40;99.90;;;;;;5054239;28;20467;-75
2022/10/09 08:07:38;;;;;;;4.22;3.50;;;19.40;99.90;;;;;;5053924;28;20036;-74
2022/10/09 08:10:04;;;;;;;3.25;2.95;;;19.50;99.90;;;;;;5052538;28;20029;-74
2022/10/09 08:12:30;;;;;;;3.95;3.45;;;19.50;99.90;;;;;;5052045;28;20057;-74
2022/10/09 08:14:56;;;;;;;10.43;3.92;;;19.50;99.90;;;;;;5053155;28;20087;-74
2022/10/09 08:17:22;;;;;;;6.57;3.28;;;19.50;99.90;;;;;;5053793;28;20420;-74
2022/10/09 08:19:47;;;;;;;11.13;3.67;;;19.50;99.90;;;;;;5053497;28;20016;-74
2022/10/09 08:22:13;;;;;;;6.35;3.40;;;19.50;99.90;;;;;;5053750;28;20028;-74
2022/10/09 08:24:39;;;;;;;4.25;3.58;;;19.50;99.90;;;;;;5053776;28;20029;-74
2022/10/09 08:27:05;;;;;;;8.50;3.55;;;19.60;99.90;;;;;;5053767;28;20475;-74
2022/10/09 08:29:31;;;;;;;10.68;4.05;;;19.60;99.90;;;;;;5054801;28;20467;-74
2022/10/09 08:31:57;;;;;;;5.38;3.25;;;19.60;99.90;;;;;;5050818;28;20507;-74
2022/10/09 08:34:25;;;;;;;5.82;3.15;;;19.70;99.90;;;;;;5052294;28;20029;-75
2022/10/09 08:36:51;;;;;;;6.45;3.55;;;19.70;99.90;;;;;;5052716;28;20075;-74
2022/10/09 08:39:16;;;;;;;5.72;4.03;;;19.70;99.90;;;;;;5051937;28;20029;-74
2022/10/09 08:41:44;;;;;;;4.85;4.10;;;19.80;99.90;;;;;;5051562;28;20031;-74
2022/10/09 08:44:30;;;;;;;6.43;3.22;;;19.80;99.90;;;;;;5052266;28;20535;-74
2022/10/09 08:47:14;;;;;;;4.57;3.72;;;19.80;99.90;;;;;;5051540;28;20080;-74
2022/10/09 08:50:00;;;;;;;6.03;3.50;;;19.80;99.90;;;;;;5051379;28;20529;-74
2022/10/09 08:52:57;;;;;;;7.80;3.42;;;19.90;99.90;;;;;;5050270;28;20028;-74
2022/10/09 08:55:42;;;;;;;5.55;3.63;;;19.90;99.90;;;;;;5051361;28;20367;-74
2022/10/09 08:58:17;;;;;;;6.30;4.10;;;19.90;99.90;;;;;;5049818;28;20025;-74
2022/10/09 09:00:48;;;;;;;7.85;3.25;;;20.00;99.90;;;;;;5050009;28;20195;-74
2022/10/09 09:03:36;;;;;;;5.00;3.47;;;20.10;99.90;;;;;;5052971;28;20029;-74
2022/10/09 09:06:25;;;;;;;5.57;3.40;;;20.10;99.90;;;;;;5052958;28;20025;-74
2022/10/09 09:09:00;;;;;;;6.85;4.00;;;20.10;99.90;;;;;;5051576;28;20029;-74
2022/10/09 09:11:51;;;;;;;10.10;3.47;;;20.20;99.90;;;;;;5052653;28;20025;-74
2022/10/09 09:14:24;;;;;;;4.40;4.03;;;20.20;99.90;;;;;;5052749;28;20502;-74
2022/10/09 09:17:01;;;;;;;5.00;3.38;;;20.20;99.90;;;;;;5052809;28;20067;-74
2022/10/09 09:19:55;;;;;;;8.95;3.38;;;20.30;99.90;;;;;;5050235;28;20039;-74
2022/10/09 09:22:23;;;;;;;4.40;3.78;;;20.40;99.90;;;;;;5052505;28;20390;-73
2022/10/09 09:24:54;;;;;;;5.00;3.58;;;20.40;99.90;;;;;;5048765;28;20120;-75
2022/10/09 09:27:25;;;;;;;6.50;3.42;;;20.40;99.90;;;;;;5043246;28;20487;-74
2022/10/09 09:30:12;;;;;;;3.45;3.15;;;20.40;99.90;;;;;;5045349;28;20025;-74
2022/10/09 09:32:58;;;;;;;7.25;2.95;;;20.50;99.90;;;;;;5046326;28;20605;-73
2022/10/09 09:36:02;;;;;;;3.65;2.58;;;20.50;99.90;;;;;;5044352;28;20091;-74
2022/10/09 09:38:27;;;;;;;4.07;2.63;;;20.50;99.90;;;;;;5051933;28;20111;-74
2022/10/09 09:40:53;;;;;;;6.53;2.28;;;20.60;99.90;;;;;;5052188;28;20020;-74
2022/10/09 09:43:22;;;;;;;3.08;2.65;;;20.60;99.90;;;;;;5052264;28;20390;-73
2022/10/09 09:45:51;;;;;;;4.20;2.40;;;20.60;99.90;;;;;;5050905;28;20036;-74
2022/10/09 09:48:42;;;;;;;3.40;2.72;;;20.60;99.90;;;;;;5051904;28;20086;-74
2022/10/09 09:51:28;;;;;;;2.85;2.20;;;20.70;99.90;;;;;;5049096;28;20033;-74
2022/10/09 09:54:02;;;;;;;2.92;2.40;;;20.70;99.90;;;;;;5049857;28;20086;-74
2022/10/09 09:56:42;;;;;;;2.85;2.20;;;20.70;99.90;;;;;;5051625;28;20414;-74
2022/10/09 09:59:34;;;;;;;6.97;2.55;;;20.80;99.90;;;;;;5035513;28;20029;-74
2022/10/09 10:02:21;;;;;;;3.35;2.30;;;20.80;99.90;;;;;;5031848;28;20298;-75
2022/10/09 10:04:48;;;;;;;3.83;2.70;;;20.90;99.90;;;;;;5031757;28;20507;-74
2022/10/09 10:07:25;;;;;;;7.53;2.63;;;20.90;99.90;;;;;;5031801;28;20372;-74
2022/10/09 10:10:01;;;;;;;4.85;3.05;;;21.00;99.90;;;;;;5030578;28;20512;-74
2022/10/09 10:12:27;;;;;;;2.33;2.17;;;21.00;99.90;;;;;;5029818;28;20087;-74
2022/10/09 10:14:53;;;;;;;2.60;2.40;;;21.10;99.90;;;;;;5029719;28;20021;-74
2022/10/09 10:17:28;;;;;;;3.17;2.85;;;21.10;99.90;;;;;;5028843;28;20364;-74
2022/10/09 10:19:53;;;;;;;2.97;2.67;;;21.20;99.90;;;;;;5030002;28;20447;-74
2022/10/09 10:22:26;;;;;;;3.17;2.60;;;21.20;99.90;;;;;;5030084;28;20057;-74
2022/10/09 10:24:56;;;;;;;2.40;2.30;;;21.20;99.90;;;;;;5030819;28;20204;-74
2022/10/09 10:27:35;;;;;;;2.75;2.55;;;21.20;99.90;;;;;;5033366;28;20021;-75
2022/10/09 10:30:04;;;;;;;3.00;2.45;;;21.20;99.90;;;;;;5051385;28;20032;-74
2022/10/09 10:32:34;;;;;;;4.80;2.80;;;21.20;99.90;;;;;;5051140;28;20037;-74
2022/10/09 10:35:13;;;;;;;3.50;2.58;;;21.20;99.90;;;;;;5050038;28;20024;-74
2022/10/09 10:37:50;;;;;;;3.03;2.50;;;21.20;99.90;;;;;;5051559;28;20095;-74
2022/10/09 10:40:23;;;;;;;5.78;2.22;;;21.20;99.90;;;;;;5051270;28;20036;-74
2022/10/09 10:43:00;;;;;;;3.00;2.80;;;21.20;99.90;;;;;;5052742;28;20029;-75
2022/10/09 10:45:43;;;;;;;2.92;2.60;;;21.20;99.90;;;;;;5055613;28;20028;-74
2022/10/09 10:48:23;;;;;;;3.05;2.78;;;21.20;99.90;;;;;;5061289;28;20048;-74
2022/10/09 10:51:10;;;;;;;3.63;2.63;;;21.20;99.90;;;;;;5070145;28;20012;-74
2022/10/09 10:54:15;;;;;;;4.18;2.78;;;21.20;99.90;;;;;;5054788;28;20024;-74
2022/10/09 10:56:44;;;;;;;3.42;2.55;;;21.30;99.90;;;;;;5049795;28;20036;-74
2022/10/09 10:59:35;;;;;;;5.20;2.60;;;21.40;99.90;;;;;;5059581;28;20044;-75
2022/10/09 11:02:42;;;;;;;2.30;2.15;;;21.50;99.90;;;;;;5055925;28;20040;-74
2022/10/09 11:05:37;;;;;;;3.25;2.47;;;21.50;99.90;;;;;;5033099;28;20505;-74
2022/10/09 11:08:21;;;;;;;2.65;2.45;;;21.70;99.90;;;;;;5060919;28;20033;-74
2022/10/09 11:11:14;;;;;;;5.32;2.83;;;21.80;99.90;;;;;;5071284;28;20038;-74
2022/10/09 11:13:48;;;;;;;;;;;21.90;99.90;;;;;;5064992;28;20479;-74
2022/10/09 11:16:38;;;;;;;3.45;2.75;;;21.90;99.90;;;;;;5059255;28;19952;-74
2022/10/09 11:19:34;;;;;;;7.65;2.70;;;22.00;99.90;;;;;;5043976;28;20074;-74
2022/10/09 11:22:12;;;;;;;2.15;2.05;;;21.90;99.90;;;;;;5062349;28;20460;-74
2022/10/09 11:25:07;;;;;;;3.70;2.20;;;22.00;99.90;;;;;;5071135;28;20547;-74
2022/10/09 11:27:51;;;;;;;6.45;2.47;;;22.00;99.90;;;;;;5053333;28;20048;-74
2022/10/09 11:30:17;;;;;;;2.90;2.45;;;21.90;99.90;;;;;;5062833;28;20035;-74
2022/10/09 11:33:01;;;;;;;5.93;2.30;;;21.90;99.90;;;;;;5068588;28;20090;-74
2022/10/09 11:35:55;;;;;;;2.63;2.38;;;22.00;99.90;;;;;;5074491;28;20055;-74
2022/10/09 11:38:28;;;;;;;7.15;2.55;;;22.00;99.90;;;;;;5068844;28;20107;-74
2022/10/09 11:40:55;;;;;;;2.75;2.38;;;22.10;99.90;;;;;;5065111;28;20016;-74
2022/10/09 11:43:21;;;;;;;3.00;2.80;;;22.10;99.90;;;;;;5067265;28;20035;-74
2022/10/09 11:45:55;;;;;;;2.08;1.98;;;22.10;99.90;;;;;;5071340;28;20036;-74
2022/10/09 11:48:59;;;;;;;4.35;2.92;;;22.20;99.90;;;;;;5061427;22;20125;-73
2022/10/09 11:51:31;;;;;;;2.47;2.28;;;22.10;99.90;;;;;;4999023;28;20057;-73
2022/10/09 11:53:58;;;;;;;3.13;2.55;;;22.10;99.90;;;;;;5014249;28;20025;-73
2022/10/09 11:56:28;;;;;;;2.70;2.50;;;22.10;99.90;;;;;;5014608;28;20479;-74
2022/10/09 11:59:03;;;;;;;4.15;3.28;;;22.00;99.90;;;;;;5000235;28;20023;-74
2022/10/09 12:01:38;;;;;;;3.75;3.10;;;22.00;99.90;;;;;;4994959;28;20444;-74
2022/10/09 12:04:12;;;;;;;3.58;3.28;;;22.00;99.90;;;;;;4993613;28;20041;-73
2022/10/09 12:06:52;;;;;;;4.05;3.78;;;22.00;99.90;;;;;;4994784;28;20081;-74
2022/10/09 12:09:26;;;;;;;6.00;3.72;;;22.00;99.90;;;;;;4993462;28;20117;-74
2022/10/09 12:12:08;;;;;;;7.38;4.00;;;22.00;99.90;;;;;;4996060;28;20022;-73
2022/10/09 12:14:36;;;;;;;5.30;3.97;;;22.00;99.90;;;;;;5005724;28;20030;-74
2022/10/09 12:17:13;;;;;;;7.47;3.95;;;22.00;99.90;;;;;;4997773;28;20027;-74
2022/10/09 12:19:40;;;;;;;5.57;4.10;;;22.00;99.90;;;;;;4981663;28;20097;-74
2022/10/09 12:22:24;;;;;;;5.03;4.53;;;22.20;99.90;;;;;;5004295;28;20380;-72
2022/10/09 12:24:53;;;;;;;3.92;3.63;;;22.30;99.90;;;;;;5005809;28;20034;-72
2022/10/09 12:27:38;;;;;;;4.75;3.97;;;22.40;99.90;;;;;;4993090;28;20031;-73
2022/10/09 12:30:13;;;;;;;9.68;4.18;;;22.30;99.90;;;;;;5007064;28;20420;-73
2022/10/09 12:32:49;;;;;;;4.45;4.05;;;22.30;99.90;;;;;;5010133;28;20027;-72
2022/10/09 12:35:20;;;;;;;8.27;4.93;;;22.20;99.90;;;;;;5000656;28;20038;-72
2022/10/09 12:37:46;;;;;;;9.75;5.22;;;22.10;99.90;;;;;;4991171;28;20066;-73
2022/10/09 12:40:31;;;;;;;8.55;4.20;;;22.10;99.90;;;;;;4991038;28;20132;-73
2022/10/09 12:42:58;;;;;;;5.53;4.93;;;22.00;99.90;;;;;;4992316;28;20117;-72
2022/10/09 12:45:26;;;;;;;4.75;4.45;;;21.90;99.90;;;;;;4992448;28;20061;-73
2022/10/09 12:47:53;;;;;;;5.20;4.38;;;21.90;99.90;;;;;;4992078;28;20065;-72
2022/10/09 12:50:24;;;;;;;5.28;4.80;;;21.90;99.90;;;;;;4991830;28;20033;-72
2022/10/09 12:52:52;;;;;;;5.45;4.68;;;22.00;99.90;;;;;;4990591;28;20034;-72
2022/10/09 12:55:30;;;;;;;9.57;5.53;;;22.00;99.90;;;;;;4991920;28;20495;-73